Time;durP1;ratioP1;P1;durP2;ratioP2;P2;SDS_P1;SDS_P2;PMS_P1;PMS_P2;Temp;Humidity;BMP_temperature;BMP_pressure;BME280_temperature;BME280_humidity;BME280_pressure;Samples;Min_cycle;Max_cycle;Signal;HPM_P1;HPM_P2
2023/10/02 00:01:19;;;;;;;35.65;20.92;;;18.70;99.90;;;;;;5073427;28;20047;-68
2023/10/02 00:03:47;;;;;;;41.10;22.33;;;18.60;99.90;;;;;;5054427;28;20036;-67
2023/10/02 00:06:16;;;;;;;37.55;21.25;;;18.60;99.90;;;;;;5054358;28;20136;-67
2023/10/02 00:08:42;;;;;;;37.45;21.30;;;18.60;99.90;;;;;;5054306;28;20051;-68
2023/10/02 00:11:39;;;;;;;38.13;21.55;;;18.50;99.90;;;;;;5054565;28;20029;-67
2023/10/02 00:14:18;;;;;;;35.50;20.92;;;18.50;99.90;;;;;;5054941;28;20075;-69
2023/10/02 00:16:59;;;;;;;36.65;21.52;;;18.50;99.90;;;;;;5061657;28;20127;-67
2023/10/02 00:19:36;;;;;;;36.97;20.77;;;18.40;99.90;;;;;;5071513;28;20101;-67
2023/10/02 00:22:05;;;;;;;37.03;21.80;;;18.40;99.90;;;;;;5071426;28;20112;-67
2023/10/02 00:24:37;;;;;;;34.88;19.90;;;18.40;99.90;;;;;;5073080;28;20047;-68
2023/10/02 00:27:04;;;;;;;37.83;20.95;;;18.40;99.90;;;;;;5073019;28;20804;-68
2023/10/02 00:29:30;;;;;;;37.33;20.13;;;18.40;99.90;;;;;;5072890;28;20392;-67
2023/10/02 00:31:56;;;;;;;37.08;20.70;;;18.40;99.90;;;;;;5073154;28;20025;-68
2023/10/02 00:34:31;;;;;;;41.65;22.40;;;18.40;99.90;;;;;;5073073;28;20173;-67
2023/10/02 00:37:05;;;;;;;39.30;22.65;;;18.30;99.90;;;;;;5070451;28;20037;-68
2023/10/02 00:39:35;;;;;;;41.45;24.98;;;18.40;99.90;;;;;;5072949;28;20017;-68
2023/10/02 00:42:24;;;;;;;44.47;25.42;;;18.30;99.90;;;;;;5072912;28;20021;-68
2023/10/02 00:47:38;;;;;;;43.40;25.00;;;18.30;99.90;;;;;;5073253;28;20396;-68
2023/10/02 00:50:10;;;;;;;38.78;23.67;;;18.30;99.90;;;;;;5073488;28;20053;-68
2023/10/02 00:52:37;;;;;;;;;;;18.30;99.90;;;;;;5072553;28;20111;-68
2023/10/02 00:55:06;;;;;;;42.55;24.88;;;18.30;99.90;;;;;;5073702;28;19953;-68
2023/10/02 00:57:35;;;;;;;40.65;24.52;;;18.30;99.90;;;;;;5073877;28;20060;-69
2023/10/02 01:00:18;;;;;;;42.42;24.30;;;18.30;99.90;;;;;;5074051;28;20032;-68
2023/10/02 01:02:45;;;;;;;42.42;24.98;;;18.30;99.90;;;;;;5073886;28;20032;-68
2023/10/02 01:05:16;;;;;;;40.95;23.83;;;18.30;99.90;;;;;;5073550;28;20039;-68
2023/10/02 01:07:44;;;;;;;44.17;23.38;;;18.40;99.90;;;;;;5071395;28;20115;-68
2023/10/02 01:10:18;;;;;;;40.22;23.48;;;18.40;99.90;;;;;;5052184;28;20077;-68
2023/10/02 01:12:53;;;;;;;41.05;24.17;;;18.40;99.90;;;;;;5053435;28;20426;-68
2023/10/02 01:15:21;;;;;;;41.72;23.65;;;18.40;99.90;;;;;;5055927;28;20032;-68
2023/10/02 01:17:48;;;;;;;40.10;22.20;;;18.40;99.90;;;;;;5072353;28;20172;-67
2023/10/02 01:20:21;;;;;;;40.25;23.73;;;18.40;99.90;;;;;;5072266;28;20457;-67
2023/10/02 01:22:52;;;;;;;42.08;23.92;;;18.50;99.90;;;;;;5072470;28;20028;-67
2023/10/02 01:25:25;;;;;;;38.67;23.85;;;18.50;99.90;;;;;;5073414;28;20036;-67
2023/10/02 01:27:55;;;;;;;41.83;24.63;;;18.40;99.90;;;;;;5071554;28;20051;-67
2023/10/02 01:30:23;;;;;;;39.40;24.27;;;18.50;99.90;;;;;;5072079;28;20154;-67
2023/10/02 01:35:46;;;;;;;46.17;25.60;;;18.40;99.90;;;;;;5073317;28;20082;-67
2023/10/02 01:38:13;;;;;;;45.50;26.13;;;18.40;99.90;;;;;;5073137;28;20086;-68
2023/10/02 01:40:53;;;;;;;41.42;25.33;;;18.40;99.90;;;;;;5073176;28;20029;-67
2023/10/02 01:43:27;;;;;;;44.95;25.13;;;18.40;99.90;;;;;;5073118;28;20048;-68
2023/10/02 01:46:00;;;;;;;40.63;23.88;;;18.30;99.90;;;;;;5072410;28;20154;-67
2023/10/02 01:48:44;;;;;;;44.00;24.20;;;18.30;99.90;;;;;;5071695;28;20036;-67
2023/10/02 01:51:20;;;;;;;40.17;23.95;;;18.30;99.90;;;;;;5072696;28;20136;-68
2023/10/02 01:53:51;;;;;;;41.20;26.05;;;18.20;99.90;;;;;;5072743;28;20055;-67
2023/10/02 01:56:18;;;;;;;40.92;25.25;;;18.20;99.90;;;;;;5072670;28;20032;-67
2023/10/02 01:58:45;;;;;;;41.90;25.08;;;18.10;99.90;;;;;;5072288;28;20035;-69
2023/10/02 02:01:12;;;;;;;45.65;27.42;;;18.10;99.90;;;;;;5072159;28;20037;-68
2023/10/02 02:03:41;;;;;;;44.17;26.42;;;18.10;99.90;;;;;;5072443;28;20028;-68
2023/10/02 02:06:09;;;;;;;46.33;27.50;;;18.00;99.90;;;;;;5072713;28;20115;-68
2023/10/02 02:08:43;;;;;;;44.25;26.80;;;18.00;99.90;;;;;;5072790;28;20028;-68
2023/10/02 02:11:20;;;;;;;45.22;27.55;;;18.00;99.90;;;;;;5072221;28;20028;-68
2023/10/02 02:13:51;;;;;;;43.65;26.35;;;17.90;99.90;;;;;;5072562;28;20033;-68
2023/10/02 02:16:22;;;;;;;44.33;26.27;;;17.90;99.90;;;;;;5072558;28;20086;-68
2023/10/02 02:18:50;;;;;;;45.03;26.55;;;17.90;99.90;;;;;;5072172;28;20042;-68
2023/10/02 02:21:18;;;;;;;42.58;25.95;;;17.80;99.90;;;;;;5072600;28;20492;-68
2023/10/02 02:23:45;;;;;;;44.30;25.70;;;17.80;99.90;;;;;;5072044;28;20032;-68
2023/10/02 02:26:21;;;;;;;47.65;26.60;;;17.80;99.90;;;;;;5072355;28;20025;-68
2023/10/02 02:28:51;;;;;;;42.92;25.75;;;17.80;99.90;;;;;;5072508;28;20024;-68
2023/10/02 02:31:30;;;;;;;45.15;27.00;;;17.80;99.90;;;;;;5072363;28;20033;-68
2023/10/02 02:33:59;;;;;;;41.58;25.35;;;17.80;99.90;;;;;;5072394;28;20028;-67
2023/10/02 02:36:34;;;;;;;43.53;25.70;;;17.70;99.90;;;;;;5072014;28;20068;-67
2023/10/02 02:39:15;;;;;;;45.75;27.92;;;17.70;99.90;;;;;;5072474;28;20449;-67
2023/10/02 02:41:46;;;;;;;48.83;27.48;;;17.70;99.90;;;;;;5072314;28;20039;-68
2023/10/02 02:46:59;;;;;;;43.65;26.77;;;17.60;99.90;;;;;;5072268;28;20043;-68
2023/10/02 02:49:25;;;;;;;45.45;28.73;;;17.60;99.90;;;;;;5072227;28;20112;-66
2023/10/02 02:51:55;;;;;;;44.67;27.05;;;17.60;99.90;;;;;;5071538;28;20136;-68
2023/10/02 02:54:25;;;;;;;42.75;26.50;;;17.60;99.90;;;;;;5072211;28;20453;-68
2023/10/02 02:56:56;;;;;;;44.33;25.83;;;17.60;99.90;;;;;;5071822;28;20091;-67
2023/10/02 02:59:26;;;;;;;43.85;26.25;;;17.60;99.90;;;;;;5072211;28;20055;-69
2023/10/02 03:01:52;;;;;;;42.90;25.70;;;17.50;99.90;;;;;;5071952;28;20040;-67
2023/10/02 03:04:18;;;;;;;41.85;26.17;;;17.50;99.90;;;;;;5071747;28;20027;-68
2023/10/02 03:06:44;;;;;;;50.47;27.60;;;17.50;99.90;;;;;;5071985;28;20036;-67
2023/10/02 03:09:10;;;;;;;47.80;27.42;;;17.40;99.90;;;;;;5071756;28;20479;-67
2023/10/02 03:11:35;;;;;;;42.65;26.13;;;17.40;99.90;;;;;;5072114;28;20404;-67
2023/10/02 03:14:13;;;;;;;42.72;26.13;;;17.50;99.90;;;;;;5071720;28;20032;-67
2023/10/02 03:16:41;;;;;;;43.45;25.30;;;17.50;99.90;;;;;;5071999;28;20036;-68
2023/10/02 03:19:07;;;;;;;41.75;25.33;;;17.50;99.90;;;;;;5071927;28;20036;-66
2023/10/02 03:21:38;;;;;;;44.17;25.88;;;17.50;99.90;;;;;;5071552;28;20025;-68
2023/10/02 03:24:04;;;;;;;48.00;26.40;;;17.50;99.90;;;;;;5071782;28;20449;-67
2023/10/02 03:29:03;;;;;;;45.38;27.10;;;17.40;99.90;;;;;;5072219;28;20432;-67
2023/10/02 03:31:51;;;;;;;46.00;26.90;;;17.40;99.90;;;;;;5071905;28;20028;-67
2023/10/02 03:36:59;;;;;;;42.45;25.60;;;17.30;99.90;;;;;;5071739;28;20044;-67
2023/10/02 03:42:12;;;;;;;44.97;26.85;;;17.20;99.90;;;;;;5071745;28;20063;-67
2023/10/02 03:44:42;;;;;;;47.45;28.33;;;17.20;99.90;;;;;;5071343;28;20029;-67
2023/10/02 03:47:12;;;;;;;48.63;28.98;;;17.10;99.90;;;;;;5071484;28;20089;-67
2023/10/02 03:49:40;;;;;;;45.45;28.60;;;17.10;99.90;;;;;;5071521;28;20024;-67
2023/10/02 03:52:06;;;;;;;47.55;28.60;;;17.10;99.90;;;;;;5069051;28;20028;-67
2023/10/02 03:54:34;;;;;;;49.03;28.65;;;17.10;99.90;;;;;;5061289;28;20029;-67
2023/10/02 03:57:01;;;;;;;48.63;28.92;;;17.00;99.90;;;;;;5058968;28;20063;-67
2023/10/02 03:59:31;;;;;;;51.17;30.90;;;17.00;99.90;;;;;;5074924;28;20070;-67
2023/10/02 04:04:43;;;;;;;47.80;28.73;;;16.90;99.90;;;;;;5075716;28;20044;-67
2023/10/02 04:07:11;;;;;;;50.05;30.92;;;16.90;99.90;;;;;;5075092;28;20119;-67
2023/10/02 04:09:37;;;;;;;56.15;30.45;;;16.80;99.90;;;;;;5075151;28;20060;-67
2023/10/02 04:12:06;;;;;;;51.15;30.33;;;16.80;99.90;;;;;;5075072;28;20115;-67
2023/10/02 04:14:33;;;;;;;56.28;32.78;;;16.80;99.90;;;;;;5075175;28;20028;-67
2023/10/02 04:19:49;;;;;;;53.00;31.65;;;16.70;99.90;;;;;;5075283;28;20059;-67
2023/10/02 04:22:25;;;;;;;54.70;33.37;;;16.60;99.90;;;;;;5075183;28;20320;-67
2023/10/02 04:24:58;;;;;;;58.80;32.75;;;16.60;99.90;;;;;;5075085;28;20028;-67
2023/10/02 04:28:12;;;;;;;53.28;30.58;;;16.60;99.90;;;;;;5075026;28;20037;-67
2023/10/02 04:32:51;;;;;;;48.35;30.88;;;16.50;99.90;;;;;;5074531;28;20117;-68
2023/10/02 04:38:08;;;;;;;50.55;30.75;;;16.40;99.90;;;;;;5074638;28;20521;-67
2023/10/02 04:40:38;;;;;;;50.67;31.48;;;16.40;99.90;;;;;;5074836;28;20091;-67
2023/10/02 04:43:28;;;;;;;55.47;32.40;;;16.40;99.90;;;;;;5074422;28;20032;-68
2023/10/02 04:46:02;;;;;;;48.17;30.90;;;16.40;99.90;;;;;;5074696;28;20037;-67
2023/10/02 04:48:42;;;;;;;50.90;31.83;;;16.40;99.90;;;;;;5074632;28;20020;-68
2023/10/02 04:51:09;;;;;;;54.05;30.88;;;16.40;99.90;;;;;;5074458;28;20063;-67
2023/10/02 04:53:35;;;;;;;52.13;31.52;;;16.40;99.90;;;;;;5074130;28;20040;-68
2023/10/02 04:56:07;;;;;;;50.33;29.95;;;16.40;99.90;;;;;;5074474;28;20043;-67
2023/10/02 04:58:39;;;;;;;46.63;30.52;;;16.40;99.90;;;;;;5074468;28;20039;-66
2023/10/02 05:03:33;;;;;;;53.17;31.50;;;16.30;99.90;;;;;;5074081;28;20392;-67
2023/10/02 05:05:59;;;;;;;55.75;32.55;;;16.30;99.90;;;;;;5074260;28;20521;-66
2023/10/02 05:09:19;;;;;;;51.35;30.15;;;16.30;99.90;;;;;;5072213;28;20421;-67
2023/10/02 05:11:46;;;;;;;49.22;31.60;;;16.40;99.90;;;;;;5073789;28;20089;-66
2023/10/02 05:14:13;;;;;;;53.30;31.25;;;16.40;99.90;;;;;;5074102;28;20029;-67
2023/10/02 05:16:42;;;;;;;51.17;30.13;;;16.50;99.90;;;;;;5073592;28;20080;-66
2023/10/02 05:19:08;;;;;;;50.60;29.80;;;16.50;99.90;;;;;;5073637;28;20067;-66
2023/10/02 05:21:50;;;;;;;50.17;31.25;;;16.60;99.90;;;;;;5073648;28;20028;-67
2023/10/02 05:24:18;;;;;;;48.73;30.47;;;16.60;99.90;;;;;;5073784;28;20039;-68
2023/10/02 05:26:44;;;;;;;52.13;31.13;;;16.60;99.90;;;;;;5073238;28;20086;-68
2023/10/02 05:29:17;;;;;;;52.80;30.45;;;16.50;99.90;;;;;;5073622;28;20025;-68
2023/10/02 05:31:47;;;;;;;49.25;28.80;;;16.60;99.90;;;;;;5073717;28;20492;-68
2023/10/02 05:34:22;;;;;;;52.67;28.98;;;16.60;99.90;;;;;;5073592;28;20039;-67
2023/10/02 05:39:34;;;;;;;52.05;30.27;;;16.70;99.90;;;;;;5073420;28;20040;-67
2023/10/02 05:42:05;;;;;;;48.50;29.58;;;16.80;99.90;;;;;;5073179;28;20447;-66
2023/10/02 05:44:37;;;;;;;46.58;27.67;;;16.80;99.90;;;;;;5073191;28;20029;-67
2023/10/02 05:47:07;;;;;;;46.42;27.50;;;16.90;99.90;;;;;;5073296;28;20044;-67
2023/10/02 05:49:36;;;;;;;44.92;27.00;;;17.00;99.90;;;;;;5073382;28;20053;-68
2023/10/02 05:52:03;;;;;;;46.85;26.52;;;17.00;99.90;;;;;;5072929;28;20047;-68
2023/10/02 05:54:29;;;;;;;46.20;27.10;;;17.10;99.90;;;;;;5073255;28;20044;-67
2023/10/02 05:57:12;;;;;;;46.30;25.58;;;17.10;99.90;;;;;;5072981;28;20123;-67
2023/10/02 05:59:54;;;;;;;45.75;26.20;;;17.20;99.90;;;;;;5072696;28;20397;-67
2023/10/02 06:02:23;;;;;;;43.42;25.80;;;17.10;99.90;;;;;;5052571;28;20037;-67
2023/10/02 06:05:04;;;;;;;49.08;27.33;;;17.10;99.90;;;;;;5052664;28;20370;-68
2023/10/02 06:07:45;;;;;;;44.88;27.05;;;17.10;99.90;;;;;;5052734;28;20373;-68
2023/10/02 06:10:25;;;;;;;48.33;27.48;;;17.10;99.90;;;;;;5052748;28;20052;-67
2023/10/02 06:13:07;;;;;;;47.80;27.13;;;17.10;99.90;;;;;;5052516;28;20032;-67
2023/10/02 06:15:49;;;;;;;48.22;25.48;;;17.10;99.90;;;;;;5058458;28;20043;-67
2023/10/02 06:18:24;;;;;;;51.33;27.38;;;17.20;99.90;;;;;;5072639;28;20048;-67
2023/10/02 06:21:03;;;;;;;45.25;25.65;;;17.20;99.90;;;;;;5072733;28;20025;-67
2023/10/02 06:23:37;;;;;;;44.10;25.23;;;17.30;99.90;;;;;;5072903;28;20028;-68
2023/10/02 06:26:09;;;;;;;43.63;24.88;;;17.40;99.90;;;;;;5072862;28;20043;-67
2023/10/02 06:28:38;;;;;;;43.35;24.75;;;17.40;99.90;;;;;;5072665;28;20028;-68
2023/10/02 06:31:06;;;;;;;45.47;26.10;;;17.40;99.90;;;;;;5072439;28;20032;-68
2023/10/02 06:33:37;;;;;;;44.40;25.80;;;17.50;99.90;;;;;;5072061;28;20036;-67
2023/10/02 06:36:07;;;;;;;46.65;25.20;;;17.50;99.90;;;;;;5052341;28;20048;-66
2023/10/02 06:38:33;;;;;;;45.83;24.55;;;17.60;99.90;;;;;;5052558;28;20111;-68
2023/10/02 06:40:59;;;;;;;44.90;24.48;;;17.60;99.90;;;;;;5052389;28;20053;-68
2023/10/02 06:43:29;;;;;;;49.65;24.35;;;17.70;99.90;;;;;;5052314;28;20036;-66
2023/10/02 06:46:13;;;;;;;41.88;23.52;;;17.80;99.90;;;;;;5052393;28;20029;-67
2023/10/02 06:48:43;;;;;;;42.10;23.15;;;17.80;99.90;;;;;;5052544;28;20036;-67
2023/10/02 06:51:10;;;;;;;37.45;21.70;;;17.90;99.90;;;;;;5071002;28;20094;-66
2023/10/02 06:53:40;;;;;;;38.33;21.63;;;18.00;99.90;;;;;;5072557;28;20108;-67
2023/10/02 06:56:12;;;;;;;41.38;22.17;;;18.10;99.90;;;;;;5072244;28;20098;-67
2023/10/02 06:58:54;;;;;;;45.63;22.38;;;18.10;99.90;;;;;;5071671;28;20132;-68
2023/10/02 07:01:26;;;;;;;37.20;22.05;;;18.30;99.90;;;;;;5072142;28;20033;-66
2023/10/02 07:03:52;;;;;;;37.92;22.17;;;18.30;99.90;;;;;;5072210;28;20181;-66
2023/10/02 07:06:24;;;;;;;39.65;22.13;;;18.40;99.90;;;;;;5072039;28;20024;-66
2023/10/02 07:09:09;;;;;;;;;;;18.50;99.90;;;;;;5072900;28;20063;-67
2023/10/02 07:11:36;;;;;;;42.05;23.10;;;18.60;99.90;;;;;;5071857;28;19904;-67
2023/10/02 07:14:04;;;;;;;37.38;21.33;;;18.80;99.90;;;;;;5072202;28;20029;-68
2023/10/02 07:16:32;;;;;;;38.25;21.20;;;19.00;99.90;;;;;;5072237;28;20051;-67
2023/10/02 07:18:58;;;;;;;36.53;20.27;;;19.30;99.90;;;;;;5072300;28;20145;-67
2023/10/02 07:21:26;;;;;;;40.78;20.85;;;19.40;99.90;;;;;;5072028;28;20534;-67
2023/10/02 07:23:52;;;;;;;40.38;21.00;;;19.60;99.90;;;;;;5071693;28;20024;-67
2023/10/02 07:26:19;;;;;;;36.38;21.13;;;19.70;99.90;;;;;;5071854;28;20035;-68
2023/10/02 07:28:51;;;;;;;35.17;19.83;;;20.00;99.90;;;;;;5071834;28;20467;-67
2023/10/02 07:31:21;;;;;;;34.00;18.83;;;20.00;99.90;;;;;;5073710;28;20020;-68
2023/10/02 07:33:46;;;;;;;35.40;19.20;;;20.20;99.90;;;;;;5075786;28;20031;-68
2023/10/02 07:36:16;;;;;;;34.67;20.02;;;20.30;99.90;;;;;;5075341;28;20028;-68
2023/10/02 07:38:45;;;;;;;37.17;19.40;;;20.40;99.90;;;;;;5075537;28;20074;-68
2023/10/02 07:41:23;;;;;;;31.83;18.50;;;20.40;99.90;;;;;;5075064;28;20115;-68
2023/10/02 07:44:07;;;;;;;36.70;19.30;;;20.50;99.90;;;;;;5075371;28;20474;-68
2023/10/02 07:46:33;;;;;;;33.63;18.60;;;20.50;99.90;;;;;;5075435;28;20457;-67
2023/10/02 07:49:00;;;;;;;37.35;22.55;;;20.50;99.90;;;;;;5075674;28;20055;-68
2023/10/02 07:51:36;;;;;;;35.78;20.25;;;20.60;99.90;;;;;;5075659;28;20056;-67
2023/10/02 07:54:02;;;;;;;33.65;18.50;;;20.70;99.90;;;;;;5074130;28;20388;-67
2023/10/02 07:56:29;;;;;;;31.73;18.50;;;20.80;99.90;;;;;;5075065;28;20044;-68
2023/10/02 07:58:55;;;;;;;32.97;18.65;;;21.00;99.90;;;;;;5074460;28;20029;-68
2023/10/02 08:01:27;;;;;;;37.95;21.73;;;21.10;99.90;;;;;;5075165;28;20108;-68
2023/10/02 08:03:56;;;;;;;35.70;18.50;;;21.30;99.90;;;;;;5075183;28;20043;-68
2023/10/02 08:06:33;;;;;;;32.15;18.88;;;21.40;99.90;;;;;;5075153;28;20056;-67
2023/10/02 08:11:49;;;;;;;31.10;16.45;;;21.50;99.90;;;;;;5075139;28;20491;-68
2023/10/02 08:14:34;;;;;;;34.60;18.87;;;21.50;99.90;;;;;;5074919;28;20032;-68
2023/10/02 08:17:18;;;;;;;35.33;17.63;;;21.40;99.90;;;;;;5075209;28;20485;-68
2023/10/02 08:19:54;;;;;;;32.53;17.55;;;21.30;99.90;;;;;;5074503;28;20531;-68
2023/10/02 08:22:23;;;;;;;32.80;17.10;;;21.30;99.90;;;;;;5074660;28;20055;-68
2023/10/02 08:24:52;;;;;;;34.85;16.77;;;21.30;99.90;;;;;;5074745;28;20464;-68
2023/10/02 08:27:18;;;;;;;34.65;16.38;;;21.30;99.90;;;;;;5074730;28;20031;-68
2023/10/02 08:29:44;;;;;;;33.78;17.10;;;21.40;99.90;;;;;;5073066;28;20029;-68
2023/10/02 08:32:10;;;;;;;34.78;16.83;;;21.50;99.90;;;;;;5074492;28;20499;-68
2023/10/02 08:34:36;;;;;;;37.05;16.98;;;21.50;99.90;;;;;;5072733;28;20028;-68
2023/10/02 08:37:07;;;;;;;32.95;15.52;;;21.60;99.90;;;;;;5084291;28;20044;-68
2023/10/02 08:39:39;;;;;;;30.88;15.32;;;22.00;99.90;;;;;;5081550;28;20484;-68
2023/10/02 08:42:13;;;;;;;31.23;14.73;;;22.40;99.90;;;;;;5094244;28;20110;-68
2023/10/02 08:44:41;;;;;;;29.45;14.52;;;22.80;99.90;;;;;;5054477;28;20029;-68
2023/10/02 08:47:12;;;;;;;29.75;14.13;;;23.30;99.90;;;;;;5093100;28;20032;-68
2023/10/02 08:49:38;;;;;;;28.38;13.65;;;23.80;99.90;;;;;;5079903;28;20032;-68
2023/10/02 08:52:11;;;;;;;31.23;13.73;;;24.00;99.90;;;;;;5084947;28;20178;-68
2023/10/02 08:54:39;;;;;;;30.23;12.35;;;24.50;99.90;;;;;;5094219;28;20028;-67
2023/10/02 08:57:06;;;;;;;28.35;13.55;;;24.70;99.90;;;;;;5086950;28;20130;-67
2023/10/02 08:59:38;;;;;;;27.15;13.60;;;24.60;99.90;;;;;;5073790;28;20032;-68
2023/10/02 09:02:14;;;;;;;30.13;13.60;;;24.60;99.90;;;;;;5073773;28;20060;-68
2023/10/02 09:05:09;;;;;;;27.27;13.57;;;24.50;99.90;;;;;;5073972;28;20037;-68
2023/10/02 09:10:25;;;;;;;30.55;14.65;;;23.90;99.90;;;;;;5054044;28;20036;-68
2023/10/02 09:13:13;;;;;;;27.85;14.05;;;23.50;99.90;;;;;;5054306;28;20031;-68
2023/10/02 09:15:44;;;;;;;29.67;14.02;;;23.40;99.90;;;;;;5055540;28;20044;-68
2023/10/02 09:18:22;;;;;;;28.47;13.93;;;23.40;99.90;;;;;;5073923;28;20038;-68
2023/10/02 09:21:04;;;;;;;29.20;14.07;;;23.40;99.90;;;;;;5073907;28;20090;-68
2023/10/02 09:23:30;;;;;;;;;;;23.30;99.90;;;;;;5072738;28;20028;-68
2023/10/02 09:26:47;;;;;;;28.60;15.02;;;23.30;99.90;;;;;;5082719;28;20006;-68
2023/10/02 09:28:58;;;;;;;30.58;15.48;;;23.40;99.90;;;;;;5079265;28;20110;-68
2023/10/02 09:31:28;;;;;;;29.75;15.85;;;23.50;99.90;;;;;;5071310;28;20032;-68
2023/10/02 09:33:55;;;;;;;26.30;13.73;;;23.60;99.90;;;;;;5069683;28;20087;-68
2023/10/02 09:36:36;;;;;;;28.17;14.45;;;24.10;99.90;;;;;;5060728;28;20048;-68
2023/10/02 09:42:07;;;;;;;26.77;13.55;;;25.30;99.90;;;;;;5070156;28;20476;-68
2023/10/02 09:44:54;;;;;;;25.40;14.38;;;25.20;99.90;;;;;;5066428;28;20076;-68
2023/10/02 09:47:20;;;;;;;29.80;13.90;;;25.20;99.90;;;;;;5068379;28;20384;-67
2023/10/02 09:50:10;;;;;;;28.10;13.93;;;25.70;99.90;;;;;;5072335;28;20024;-68
2023/10/02 09:52:48;;;;;;;26.13;11.80;;;25.80;99.90;;;;;;5072815;28;20062;-67
2023/10/02 09:55:27;;;;;;;25.73;12.45;;;25.80;99.90;;;;;;5068278;28;20357;-68
2023/10/02 09:57:55;;;;;;;26.63;12.45;;;25.70;99.90;;;;;;5069863;28;20032;-67
2023/10/02 10:00:40;;;;;;;25.52;12.13;;;25.70;99.90;;;;;;5063662;28;20032;-68
2023/10/02 10:03:22;;;;;;;22.63;11.45;;;25.60;99.90;;;;;;5069884;28;20024;-68
2023/10/02 10:06:06;;;;;;;23.73;11.88;;;25.60;99.90;;;;;;5070794;28;20372;-68
2023/10/02 10:09:19;;;;;;;25.58;11.48;;;25.60;99.90;;;;;;5070306;28;20041;-68
2023/10/02 10:11:42;;;;;;;21.75;11.68;;;25.60;99.90;;;;;;5071716;28;20024;-67
2023/10/02 10:14:36;;;;;;;26.95;12.38;;;25.50;99.90;;;;;;5071186;28;20454;-68
2023/10/02 10:17:12;;;;;;;26.27;11.70;;;25.30;99.90;;;;;;5069758;28;20040;-68
2023/10/02 10:19:41;;;;;;;23.83;12.10;;;25.20;99.90;;;;;;5071610;28;20038;-68
2023/10/02 10:22:40;;;;;;;24.33;11.55;;;25.00;99.90;;;;;;5068303;28;20035;-68
2023/10/02 10:27:54;;;;;;;28.50;11.48;;;24.80;99.90;;;;;;5066887;28;20064;-67
2023/10/02 10:30:26;;;;;;;22.95;10.65;;;24.80;99.90;;;;;;5066695;28;20392;-67
2023/10/02 10:33:13;;;;;;;22.08;10.43;;;25.00;99.90;;;;;;5069254;28;20108;-67
2023/10/02 10:35:49;;;;;;;23.15;9.93;;;25.10;99.90;;;;;;5067777;28;20056;-68
2023/10/02 10:41:31;;;;;;;22.63;11.27;;;25.50;99.90;;;;;;5051132;28;20519;-68
2023/10/02 10:43:59;;;;;;;25.73;11.10;;;25.40;99.90;;;;;;5080923;28;20085;-68
2023/10/02 10:46:31;;;;;;;22.02;10.18;;;25.40;99.90;;;;;;5075425;28;20033;-68
2023/10/02 10:49:07;;;;;;;24.02;11.30;;;25.90;99.90;;;;;;5071410;28;20115;-68
2023/10/02 10:51:35;;;;;;;21.67;10.95;;;26.40;99.90;;;;;;5071945;28;20052;-68
2023/10/02 10:54:13;;;;;;;22.77;11.65;;;26.70;99.90;;;;;;5065820;28;20104;-68
2023/10/02 10:56:43;;;;;;;25.13;12.00;;;26.50;99.90;;;;;;5052556;28;20555;-68
2023/10/02 10:59:13;;;;;;;22.48;11.00;;;26.40;99.90;;;;;;5052542;28;20099;-68
2023/10/02 11:02:09;;;;;;;24.35;11.88;;;26.40;99.90;;;;;;5070135;28;20036;-68
2023/10/02 11:04:53;;;;;;;24.88;11.70;;;26.60;99.90;;;;;;5073098;28;20035;-68
2023/10/02 11:07:25;;;;;;;22.40;10.65;;;27.20;99.90;;;;;;5076478;28;20028;-67
2023/10/02 11:10:19;;;;;;;24.20;11.20;;;27.60;99.90;;;;;;5076181;28;20471;-68
2023/10/02 11:12:55;;;;;;;24.10;12.13;;;27.70;99.90;;;;;;5076490;28;20034;-68
2023/10/02 11:18:20;;;;;;;24.40;12.32;;;27.70;99.90;;;;;;5076071;28;20121;-67
2023/10/02 11:20:50;;;;;;;23.45;10.60;;;28.00;99.90;;;;;;5076432;28;20028;-66
2023/10/02 11:23:37;;;;;;;22.40;11.07;;;28.20;99.90;;;;;;5075873;28;20027;-68
2023/10/02 11:26:13;;;;;;;22.23;10.77;;;28.20;99.90;;;;;;5076187;28;20484;-67
2023/10/02 11:28:41;;;;;;;24.00;10.95;;;28.20;99.90;;;;;;5074335;28;20225;-69
2023/10/02 11:31:35;;;;;;;23.17;11.20;;;28.30;99.90;;;;;;5065616;28;20129;-69
2023/10/02 11:34:02;;;;;;;24.52;11.52;;;28.40;99.90;;;;;;5061366;28;20036;-69
2023/10/02 11:36:29;;;;;;;25.25;12.20;;;28.50;99.90;;;;;;5076037;28;20071;-69
2023/10/02 11:38:56;;;;;;;22.08;11.27;;;28.50;99.90;;;;;;5075874;28;20064;-68
2023/10/02 11:41:21;;;;;;;23.17;11.85;;;28.40;99.90;;;;;;5075936;28;20020;-68
2023/10/02 11:43:48;;;;;;;23.13;10.40;;;28.30;99.90;;;;;;5091013;28;20031;-68
2023/10/02 11:46:14;;;;;;;23.45;11.35;;;28.30;99.90;;;;;;5095768;28;20039;-68
2023/10/02 11:48:40;;;;;;;23.33;11.20;;;28.20;99.90;;;;;;5094834;28;20028;-68
2023/10/02 11:51:06;;;;;;;23.00;11.65;;;28.30;99.90;;;;;;5090455;28;20133;-67
2023/10/02 11:53:33;;;;;;;22.50;11.75;;;28.20;99.90;;;;;;5075592;28;20380;-67
2023/10/02 11:55:58;;;;;;;23.40;10.50;;;28.30;99.90;;;;;;5075545;28;20032;-68
2023/10/02 11:58:24;;;;;;;24.50;11.15;;;28.70;99.90;;;;;;5074721;28;20033;-68
2023/10/02 12:00:50;;;;;;;21.50;10.85;;;29.20;99.90;;;;;;5067171;28;20384;-68
2023/10/02 12:03:18;;;;;;;24.15;10.48;;;29.60;99.90;;;;;;5066332;28;20372;-68
2023/10/02 12:05:43;;;;;;;21.23;10.02;;;30.00;99.90;;;;;;5062441;28;20856;-68
2023/10/02 12:08:09;;;;;;;22.55;10.23;;;30.80;99.70;;;;;;5070271;28;20024;-67
2023/10/02 12:10:39;;;;;;;21.25;10.57;;;31.00;98.40;;;;;;5075193;28;20469;-67
2023/10/02 12:13:06;;;;;;;24.58;11.48;;;31.40;98.40;;;;;;5075392;28;20392;-68
2023/10/02 12:15:31;;;;;;;22.67;11.02;;;31.50;98.10;;;;;;5075124;28;20027;-68
2023/10/02 12:17:57;;;;;;;22.30;10.88;;;31.50;97.80;;;;;;5074657;28;20107;-68
2023/10/02 12:20:22;;;;;;;23.05;10.82;;;31.30;97.80;;;;;;5075150;28;20020;-67
2023/10/02 12:22:48;;;;;;;26.42;11.88;;;30.90;98.10;;;;;;5075023;28;20472;-68
2023/10/02 12:25:15;;;;;;;23.80;12.05;;;30.40;98.90;;;;;;5074439;28;20032;-67
2023/10/02 12:27:41;;;;;;;26.13;12.15;;;30.30;99.10;;;;;;5074660;28;20090;-68
2023/10/02 12:30:11;;;;;;;21.15;10.35;;;30.50;98.90;;;;;;5066434;28;20033;-68
2023/10/02 12:32:38;;;;;;;24.15;11.18;;;30.60;98.70;;;;;;5059760;28;20082;-68
2023/10/02 12:35:05;;;;;;;25.80;10.65;;;30.40;98.50;;;;;;5054766;28;20029;-68
2023/10/02 12:37:31;;;;;;;21.13;9.82;;;30.20;98.80;;;;;;5053413;28;20048;-68
2023/10/02 12:39:58;;;;;;;19.45;9.00;;;29.90;99.00;;;;;;5054734;28;20021;-67
2023/10/02 12:42:23;;;;;;;20.13;9.27;;;29.70;99.40;;;;;;5062400;28;20028;-68
2023/10/02 12:44:49;;;;;;;21.95;9.82;;;29.30;99.20;;;;;;5071731;28;20032;-68
2023/10/02 12:47:15;;;;;;;23.88;9.75;;;28.80;99.80;;;;;;5074774;28;20031;-67
2023/10/02 12:49:41;;;;;;;21.27;9.85;;;28.60;99.90;;;;;;5074334;28;20473;-68
2023/10/02 12:52:06;;;;;;;20.30;9.20;;;28.40;99.90;;;;;;5074674;28;20349;-68
2023/10/02 12:54:32;;;;;;;20.45;8.50;;;28.40;99.90;;;;;;5074499;28;20024;-68
2023/10/02 12:56:58;;;;;;;22.02;9.95;;;28.20;99.90;;;;;;5074199;28;20387;-68
2023/10/02 12:59:24;;;;;;;19.52;8.60;;;28.10;99.90;;;;;;5073855;28;20419;-68
2023/10/02 13:01:50;;;;;;;19.50;8.43;;;27.90;99.90;;;;;;5074261;28;20732;-68
2023/10/02 13:04:16;;;;;;;21.98;8.95;;;27.80;99.90;;;;;;5073138;28;20078;-68
2023/10/02 13:06:45;;;;;;;17.67;8.13;;;27.80;99.90;;;;;;5074352;28;20020;-68
2023/10/02 13:09:14;;;;;;;18.10;8.60;;;27.80;99.90;;;;;;5074271;28;20111;-68
2023/10/02 13:11:44;;;;;;;17.08;7.85;;;27.80;99.90;;;;;;5073687;28;20029;-68
2023/10/02 13:14:16;;;;;;;21.67;8.95;;;28.00;99.90;;;;;;5074125;28;20028;-68
2023/10/02 13:16:42;;;;;;;19.38;8.55;;;27.90;99.90;;;;;;5073645;28;20119;-68
2023/10/02 13:19:09;;;;;;;21.38;9.70;;;27.90;99.90;;;;;;5073584;28;20032;-68
2023/10/02 13:21:40;;;;;;;23.73;10.38;;;28.00;99.90;;;;;;5073783;28;20078;-68
2023/10/02 13:24:06;;;;;;;18.50;9.80;;;28.00;99.90;;;;;;5073958;28;20032;-68
2023/10/02 13:26:33;;;;;;;21.95;10.07;;;28.00;99.90;;;;;;5072389;28;20277;-69
2023/10/02 13:28:59;;;;;;;19.27;10.13;;;28.00;99.90;;;;;;5071475;28;20075;-68
2023/10/02 13:31:25;;;;;;;22.40;10.52;;;28.00;99.90;;;;;;5072369;28;20354;-68
2023/10/02 13:33:55;;;;;;;23.38;10.55;;;27.80;99.90;;;;;;5073264;28;20472;-68
2023/10/02 13:36:24;;;;;;;22.55;10.73;;;27.80;99.90;;;;;;5071998;28;20544;-68
2023/10/02 13:38:57;;;;;;;20.65;10.38;;;27.70;99.90;;;;;;5073339;28;20053;-69
2023/10/02 13:41:24;;;;;;;22.45;10.88;;;27.80;99.90;;;;;;5073657;28;20028;-69